Time;durP1;ratioP1;P1;durP2;ratioP2;P2;SDS_P1;SDS_P2;PMS_P1;PMS_P2;Temp;Humidity;BMP_temperature;BMP_pressure;BME280_temperature;BME280_humidity;BME280_pressure;Samples;Min_cycle;Max_cycle;Signal;HPM_P1;HPM_P2
2023/07/18 00:00:13;;;;;;;8.40;3.42;;;14.60;99.90;;;;;;4975618;28;20034;-63
2023/07/18 00:02:39;;;;;;;9.48;3.22;;;14.60;99.90;;;;;;4975467;28;20065;-62
2023/07/18 00:05:07;;;;;;;8.05;3.20;;;14.60;99.90;;;;;;4974307;28;20043;-63
2023/07/18 00:07:34;;;;;;;10.52;4.88;;;14.60;99.90;;;;;;4975701;28;20082;-62
2023/07/18 00:10:00;;;;;;;8.85;4.00;;;14.50;99.90;;;;;;4975395;28;20125;-63
2023/07/18 00:12:25;;;;;;;9.50;4.10;;;14.50;99.90;;;;;;4973978;28;20117;-63
2023/07/18 00:14:52;;;;;;;7.53;4.07;;;14.40;99.90;;;;;;4975284;28;20053;-63
2023/07/18 00:17:17;;;;;;;11.13;5.30;;;14.40;99.90;;;;;;4975585;28;20085;-63
2023/07/18 00:19:43;;;;;;;8.15;4.20;;;14.30;99.90;;;;;;4973813;28;20059;-64
2023/07/18 00:22:09;;;;;;;9.02;4.10;;;14.30;99.90;;;;;;4975125;28;20038;-62
2023/07/18 00:24:35;;;;;;;9.70;4.50;;;14.30;99.90;;;;;;4975020;28;20053;-63
2023/07/18 00:27:00;;;;;;;11.00;5.60;;;14.20;99.90;;;;;;4975124;28;20049;-63
2023/07/18 00:29:26;;;;;;;8.98;4.10;;;14.10;99.90;;;;;;4974084;28;20149;-63
2023/07/18 00:31:52;;;;;;;9.45;4.75;;;14.00;99.90;;;;;;4974987;28;20049;-63
2023/07/18 00:34:18;;;;;;;8.85;4.55;;;14.10;99.90;;;;;;4973657;28;20059;-64
2023/07/18 00:36:45;;;;;;;9.52;3.95;;;14.10;99.90;;;;;;4974884;28;20487;-64
2023/07/18 00:39:12;;;;;;;10.93;4.55;;;14.10;99.90;;;;;;4973846;28;20031;-63
2023/07/18 00:41:38;;;;;;;10.02;4.35;;;14.10;99.90;;;;;;4973744;28;20086;-62
2023/07/18 00:44:04;;;;;;;10.25;4.57;;;14.10;99.90;;;;;;4973538;28;20035;-63
2023/07/18 00:46:31;;;;;;;10.80;4.82;;;14.00;99.90;;;;;;4974967;28;20077;-63
2023/07/18 00:48:57;;;;;;;8.50;3.92;;;14.00;99.90;;;;;;4973776;28;20051;-63
2023/07/18 00:51:26;;;;;;;8.73;3.95;;;14.00;99.90;;;;;;4974739;28;20049;-64
2023/07/18 00:53:53;;;;;;;11.15;4.53;;;14.00;99.90;;;;;;4974784;28;20499;-63
2023/07/18 00:56:19;;;;;;;7.93;3.95;;;13.90;99.90;;;;;;4973564;28;20046;-63
2023/07/18 00:58:45;;;;;;;9.27;4.40;;;13.90;99.90;;;;;;4974054;28;20050;-64
2023/07/18 01:01:11;;;;;;;9.98;4.80;;;13.90;99.90;;;;;;4974515;28;20035;-63
2023/07/18 01:03:38;;;;;;;12.05;5.28;;;13.90;99.90;;;;;;4957265;28;20125;-63
2023/07/18 01:06:07;;;;;;;9.25;4.07;;;13.80;99.90;;;;;;4974753;28;20116;-63
2023/07/18 01:08:33;;;;;;;10.82;4.68;;;13.80;99.90;;;;;;4974375;28;20053;-63
2023/07/18 01:10:59;;;;;;;10.57;4.38;;;13.80;99.90;;;;;;4974632;28;20034;-62
2023/07/18 01:13:24;;;;;;;11.18;4.95;;;13.70;99.90;;;;;;4973184;28;20074;-61
2023/07/18 01:15:50;;;;;;;11.52;4.80;;;13.70;99.90;;;;;;4974594;28;20046;-62
2023/07/18 01:18:16;;;;;;;9.55;4.75;;;13.70;99.90;;;;;;4974077;28;20411;-62
2023/07/18 01:20:44;;;;;;;12.43;4.95;;;13.60;99.90;;;;;;4973150;28;20500;-64
2023/07/18 01:23:10;;;;;;;11.93;4.90;;;13.60;99.90;;;;;;4974589;28;20050;-64
2023/07/18 01:25:36;;;;;;;12.40;5.00;;;13.60;99.90;;;;;;4974179;28;20594;-64
2023/07/18 01:28:03;;;;;;;11.15;4.57;;;13.70;99.90;;;;;;4974486;28;20038;-64
2023/07/18 01:30:30;;;;;;;12.35;5.10;;;13.70;99.90;;;;;;4956995;28;20054;-63
2023/07/18 01:32:56;;;;;;;10.18;4.70;;;13.60;99.90;;;;;;4974316;28;20104;-64
2023/07/18 01:35:25;;;;;;;9.05;4.50;;;13.70;99.90;;;;;;4974509;28;20043;-63
2023/07/18 01:37:52;;;;;;;9.10;4.18;;;13.60;99.90;;;;;;4973200;28;20047;-62
2023/07/18 01:40:20;;;;;;;9.23;4.50;;;13.60;99.90;;;;;;4973250;28;20041;-63
2023/07/18 01:42:47;;;;;;;11.02;5.20;;;13.70;99.90;;;;;;4974194;28;20049;-63
2023/07/18 01:45:13;;;;;;;9.27;4.65;;;13.60;99.90;;;;;;4972904;28;20043;-63
2023/07/18 01:47:40;;;;;;;10.75;4.80;;;13.70;99.90;;;;;;4973999;28;20089;-64
2023/07/18 01:50:07;;;;;;;10.88;4.82;;;13.70;99.90;;;;;;4974349;28;20047;-63
2023/07/18 01:52:34;;;;;;;10.20;4.72;;;13.60;99.90;;;;;;4974250;28;20174;-63
2023/07/18 01:55:02;;;;;;;11.68;4.65;;;13.60;99.90;;;;;;4972753;28;20035;-64
2023/07/18 01:57:41;;;;;;;9.10;4.80;;;13.60;99.90;;;;;;4974317;28;20035;-62
2023/07/18 02:00:12;;;;;;;11.25;4.90;;;13.60;99.90;;;;;;4974193;28;20034;-63
2023/07/18 02:02:38;;;;;;;10.47;4.40;;;13.70;99.90;;;;;;4974262;28;20038;-65
2023/07/18 02:05:04;;;;;;;9.73;5.13;;;13.70;99.90;;;;;;4972948;28;20314;-64
2023/07/18 02:07:31;;;;;;;10.70;5.30;;;13.70;99.90;;;;;;4974150;28;20054;-63
2023/07/18 02:09:59;;;;;;;8.55;4.00;;;13.70;99.90;;;;;;4974176;28;20125;-63
2023/07/18 02:12:26;;;;;;;12.38;5.00;;;13.70;99.90;;;;;;4977096;28;20034;-62
2023/07/18 02:14:51;;;;;;;10.55;5.63;;;13.70;99.90;;;;;;4977913;28;20062;-63
2023/07/18 02:17:17;;;;;;;12.27;4.90;;;13.70;99.90;;;;;;4976529;28;20483;-62
2023/07/18 02:19:43;;;;;;;9.70;4.85;;;13.70;99.90;;;;;;4977274;28;20054;-62
2023/07/18 02:22:09;;;;;;;11.35;5.20;;;13.70;99.90;;;;;;4977620;28;20043;-63
2023/07/18 02:24:34;;;;;;;10.30;4.93;;;13.60;99.90;;;;;;4977262;28;20129;-63
2023/07/18 02:27:00;;;;;;;12.68;5.40;;;13.60;99.90;;;;;;4976047;28;20128;-63
2023/07/18 02:29:26;;;;;;;10.02;5.25;;;13.60;99.90;;;;;;4977109;28;20045;-63
2023/07/18 02:31:53;;;;;;;11.60;5.20;;;13.60;99.90;;;;;;4977155;28;20069;-63
2023/07/18 02:34:19;;;;;;;15.30;6.90;;;13.50;99.90;;;;;;4977058;28;20043;-63
2023/07/18 02:36:45;;;;;;;12.20;5.13;;;13.50;99.90;;;;;;4977436;28;20483;-63
2023/07/18 02:39:11;;;;;;;11.50;6.13;;;13.40;99.90;;;;;;4976976;28;20121;-65
2023/07/18 02:41:37;;;;;;;9.50;5.38;;;13.40;99.90;;;;;;4977012;28;20456;-63
2023/07/18 02:44:04;;;;;;;9.10;4.50;;;13.40;99.90;;;;;;4975798;28;20050;-63
2023/07/18 02:46:30;;;;;;;12.50;5.82;;;13.40;99.90;;;;;;4976955;28;20050;-63
2023/07/18 02:48:56;;;;;;;10.35;4.97;;;13.40;99.90;;;;;;4975598;28;20053;-63
2023/07/18 02:51:23;;;;;;;11.52;5.90;;;13.30;99.90;;;;;;4975655;28;20038;-64
2023/07/18 02:53:51;;;;;;;11.15;5.38;;;13.30;99.90;;;;;;4977104;28;20043;-63
2023/07/18 02:56:18;;;;;;;11.70;5.65;;;13.30;99.90;;;;;;4977041;28;20458;-63
2023/07/18 02:58:44;;;;;;;10.25;4.93;;;13.30;99.90;;;;;;4976674;28;20053;-63
2023/07/18 03:01:11;;;;;;;12.77;4.97;;;13.30;99.90;;;;;;4975742;28;20089;-63
2023/07/18 03:03:41;;;;;;;10.27;4.60;;;13.30;99.90;;;;;;4975368;28;20047;-63
2023/07/18 03:06:09;;;;;;;10.00;5.40;;;13.20;99.90;;;;;;4976600;28;20078;-63
2023/07/18 03:08:36;;;;;;;11.18;5.20;;;13.20;99.90;;;;;;4975301;28;20121;-64
2023/07/18 03:11:05;;;;;;;9.82;6.00;;;13.20;99.90;;;;;;4975565;28;20050;-63
2023/07/18 03:13:31;;;;;;;11.02;5.15;;;13.30;99.90;;;;;;4976305;28;20050;-64
2023/07/18 03:15:57;;;;;;;12.05;6.28;;;13.20;99.90;;;;;;4976666;28;20102;-64
2023/07/18 03:18:23;;;;;;;11.90;5.50;;;13.20;99.90;;;;;;4976212;28;20066;-63
2023/07/18 03:20:49;;;;;;;13.13;5.63;;;13.30;99.90;;;;;;4975124;28;20043;-64
2023/07/18 03:23:15;;;;;;;10.75;5.50;;;13.20;99.90;;;;;;4974890;28;20126;-63
2023/07/18 03:25:41;;;;;;;10.90;5.35;;;13.20;99.90;;;;;;4976292;28;20054;-64
2023/07/18 03:28:10;;;;;;;12.85;5.13;;;13.30;99.90;;;;;;4976203;28;20046;-63
2023/07/18 03:30:36;;;;;;;13.40;6.07;;;13.30;99.90;;;;;;4976081;28;20042;-64
2023/07/18 03:33:02;;;;;;;12.25;5.30;;;13.20;99.90;;;;;;4976256;28;20395;-64
2023/07/18 03:35:28;;;;;;;10.00;5.43;;;13.20;99.90;;;;;;4975073;28;20046;-64
2023/07/18 03:37:54;;;;;;;10.10;5.60;;;13.20;99.90;;;;;;4976030;28;20042;-63
2023/07/18 03:40:20;;;;;;;13.45;5.72;;;13.20;99.90;;;;;;4975935;28;20045;-63
2023/07/18 03:42:45;;;;;;;10.60;5.35;;;13.10;99.90;;;;;;4975914;28;20074;-64
2023/07/18 03:45:13;;;;;;;14.85;6.10;;;13.10;99.90;;;;;;4958632;28;20043;-64
2023/07/18 03:47:42;;;;;;;13.18;5.97;;;13.10;99.90;;;;;;4976165;28;20050;-64
2023/07/18 03:50:11;;;;;;;10.70;5.55;;;13.10;99.90;;;;;;4974641;28;20042;-64
2023/07/18 03:52:37;;;;;;;11.45;5.43;;;13.10;99.90;;;;;;4975941;28;20118;-63
2023/07/18 03:55:03;;;;;;;14.10;6.03;;;13.10;99.90;;;;;;4975718;28;20047;-63
2023/07/18 03:57:32;;;;;;;12.35;5.88;;;13.00;99.90;;;;;;4975940;28;20038;-64
2023/07/18 03:59:58;;;;;;;12.02;5.80;;;13.00;99.90;;;;;;4974569;28;20035;-63
2023/07/18 04:02:24;;;;;;;11.38;5.88;;;13.10;99.90;;;;;;4975711;28;20134;-63
2023/07/18 04:04:50;;;;;;;12.73;6.05;;;13.00;99.90;;;;;;4974275;28;20046;-63
2023/07/18 04:07:18;;;;;;;12.75;5.68;;;13.00;99.90;;;;;;4974492;28;20049;-63
2023/07/18 04:09:44;;;;;;;12.45;5.80;;;13.10;99.90;;;;;;4974571;28;20443;-63
2023/07/18 04:12:10;;;;;;;12.55;5.43;;;13.10;99.90;;;;;;4975632;28;20027;-63
2023/07/18 04:14:36;;;;;;;15.02;6.30;;;13.10;99.90;;;;;;4974020;28;20146;-63
2023/07/18 04:17:02;;;;;;;14.05;6.30;;;13.10;99.90;;;;;;4974054;28;20411;-63
2023/07/18 04:19:29;;;;;;;11.38;5.78;;;13.20;99.90;;;;;;4975118;28;20554;-63
2023/07/18 04:21:55;;;;;;;12.98;6.47;;;13.10;99.90;;;;;;4974132;28;20403;-63
2023/07/18 04:24:21;;;;;;;13.70;5.57;;;13.10;99.90;;;;;;4975465;28;20042;-64
2023/07/18 04:26:47;;;;;;;12.65;5.47;;;13.20;99.90;;;;;;4975107;28;20043;-63
2023/07/18 04:29:13;;;;;;;13.05;5.70;;;13.20;99.90;;;;;;4975141;28;20128;-63
2023/07/18 04:31:39;;;;;;;11.18;5.78;;;13.20;99.90;;;;;;4975041;28;20588;-63
2023/07/18 04:34:04;;;;;;;10.77;5.80;;;13.30;99.90;;;;;;4974537;28;20043;-63
2023/07/18 04:36:30;;;;;;;12.85;5.20;;;13.30;99.90;;;;;;4975029;28;20041;-63
2023/07/18 04:38:56;;;;;;;11.95;5.60;;;13.30;99.90;;;;;;4975157;28;20035;-64
2023/07/18 04:41:22;;;;;;;14.52;5.75;;;13.40;99.90;;;;;;4975177;28;20031;-63
2023/07/18 04:43:47;;;;;;;12.35;5.30;;;13.50;99.90;;;;;;4975117;28;20047;-63
2023/07/18 04:46:13;;;;;;;14.45;5.80;;;13.60;99.90;;;;;;4957883;28;20121;-63
2023/07/18 04:48:40;;;;;;;13.98;6.00;;;13.70;99.90;;;;;;4975013;28;20430;-63
2023/07/18 04:51:06;;;;;;;13.73;5.70;;;13.70;99.90;;;;;;4975027;28;20546;-64
2023/07/18 04:53:32;;;;;;;11.35;5.25;;;13.80;99.90;;;;;;4973280;28;20051;-63
2023/07/18 04:55:59;;;;;;;12.73;5.40;;;13.90;99.90;;;;;;4973637;28;20043;-64
2023/07/18 04:58:27;;;;;;;10.40;4.72;;;14.00;99.90;;;;;;4974802;28;20528;-64
2023/07/18 05:00:54;;;;;;;16.20;6.22;;;14.00;99.90;;;;;;4974854;28;20502;-64
2023/07/18 05:03:21;;;;;;;13.60;5.22;;;14.00;99.90;;;;;;4974805;28;20483;-64
2023/07/18 05:05:47;;;;;;;12.93;4.93;;;14.10;99.90;;;;;;4974467;28;20047;-63
2023/07/18 05:08:13;;;;;;;11.68;4.82;;;14.10;99.90;;;;;;4973176;28;20049;-63
2023/07/18 05:10:40;;;;;;;12.85;4.90;;;14.20;99.90;;;;;;4973187;28;20506;-64
2023/07/18 05:13:07;;;;;;;12.52;4.70;;;14.20;99.90;;;;;;4974372;28;20097;-63
2023/07/18 05:15:32;;;;;;;13.38;4.90;;;14.30;99.90;;;;;;4973164;28;20053;-63
2023/07/18 05:17:58;;;;;;;12.05;4.97;;;14.50;99.90;;;;;;4974434;28;20062;-63
2023/07/18 05:20:24;;;;;;;12.68;4.97;;;14.60;99.90;;;;;;4974289;28;20050;-63
2023/07/18 05:22:49;;;;;;;12.25;4.85;;;14.90;99.90;;;;;;4973065;28;20042;-64
2023/07/18 05:25:17;;;;;;;11.85;4.70;;;15.10;99.90;;;;;;4974623;28;20066;-64
2023/07/18 05:27:43;;;;;;;12.43;4.45;;;15.70;99.90;;;;;;4973034;28;20126;-63
2023/07/18 05:30:16;;;;;;;12.75;4.55;;;15.90;99.90;;;;;;4974306;28;20078;-63
2023/07/18 05:32:42;;;;;;;12.75;4.60;;;15.90;99.90;;;;;;4974669;28;20041;-63
2023/07/18 05:35:13;;;;;;;10.48;3.88;;;15.80;99.90;;;;;;4956922;28;20117;-63
2023/07/18 05:37:40;;;;;;;10.77;4.10;;;15.80;99.90;;;;;;4972967;28;20078;-63
2023/07/18 05:40:10;;;;;;;12.00;4.00;;;15.70;99.90;;;;;;4973131;28;20101;-63
2023/07/18 05:42:36;;;;;;;10.73;4.15;;;16.10;99.90;;;;;;4974447;28;20039;-64
2023/07/18 05:45:03;;;;;;;9.85;3.55;;;16.50;99.90;;;;;;4975832;28;20526;-63
2023/07/18 05:47:29;;;;;;;10.77;3.88;;;16.80;99.90;;;;;;4977976;28;20078;-63
2023/07/18 05:49:55;;;;;;;11.52;3.85;;;17.20;99.90;;;;;;4976671;28;20069;-63
2023/07/18 05:52:20;;;;;;;10.50;3.63;;;17.30;99.90;;;;;;4976858;28;20054;-64
2023/07/18 05:54:46;;;;;;;13.90;3.92;;;17.40;99.90;;;;;;4976991;28;20058;-63
2023/07/18 05:57:13;;;;;;;10.52;3.85;;;17.50;99.90;;;;;;4976871;28;20039;-64
2023/07/18 05:59:39;;;;;;;10.25;3.55;;;17.50;99.90;;;;;;4977570;28;20078;-63
2023/07/18 06:02:05;;;;;;;8.60;3.53;;;17.50;99.90;;;;;;4976682;28;20078;-64
2023/07/18 06:04:31;;;;;;;12.60;3.35;;;17.50;99.90;;;;;;4977979;28;20117;-64
2023/07/18 06:06:57;;;;;;;10.52;3.40;;;17.70;99.90;;;;;;4976620;28;20043;-63
2023/07/18 06:09:22;;;;;;;9.85;3.67;;;17.80;99.90;;;;;;4977893;28;20069;-63
2023/07/18 06:11:48;;;;;;;10.60;3.45;;;18.00;99.90;;;;;;4978006;28;20072;-63
2023/07/18 06:14:14;;;;;;;10.82;3.33;;;18.40;99.90;;;;;;4977449;28;20043;-63
2023/07/18 06:16:40;;;;;;;10.48;3.65;;;18.80;99.90;;;;;;4977684;28;20035;-64
2023/07/18 06:19:06;;;;;;;10.10;3.72;;;18.70;99.90;;;;;;4977340;28;20125;-64
2023/07/18 06:21:31;;;;;;;9.52;3.42;;;18.60;99.90;;;;;;4977681;28;20498;-63
2023/07/18 06:23:57;;;;;;;9.48;3.53;;;18.50;99.90;;;;;;4976399;28;20450;-63
2023/07/18 06:26:23;;;;;;;10.02;3.70;;;18.40;99.90;;;;;;4976200;28;20047;-63
2023/07/18 06:28:49;;;;;;;11.23;3.72;;;18.30;99.90;;;;;;4977560;28;20479;-64
2023/07/18 06:31:15;;;;;;;10.50;3.45;;;18.40;99.90;;;;;;4992256;28;20177;-64
2023/07/18 06:33:41;;;;;;;9.82;3.00;;;18.90;99.90;;;;;;4977144;28;20129;-63
2023/07/18 06:36:08;;;;;;;8.40;3.17;;;19.10;99.90;;;;;;4977110;28;20050;-64
2023/07/18 06:38:33;;;;;;;11.52;3.55;;;19.70;99.90;;;;;;4977500;28;20037;-64
2023/07/18 06:40:59;;;;;;;10.73;3.20;;;20.30;99.90;;;;;;4977063;28;20043;-64
2023/07/18 06:43:27;;;;;;;10.57;3.45;;;20.60;99.90;;;;;;4976072;28;20122;-64
2023/07/18 06:45:53;;;;;;;9.52;3.30;;;20.70;99.90;;;;;;4977011;28;20046;-63
2023/07/18 06:48:19;;;;;;;10.52;3.30;;;20.60;99.90;;;;;;4953341;28;20069;-63
2023/07/18 06:50:51;;;;;;;11.82;3.25;;;20.60;99.90;;;;;;4989565;28;20038;-63
2023/07/18 06:53:19;;;;;;;10.40;3.08;;;20.80;99.90;;;;;;4977111;28;20059;-63
2023/07/18 06:55:46;;;;;;;8.77;2.97;;;21.00;99.90;;;;;;4975696;28;20089;-64
2023/07/18 06:58:12;;;;;;;10.23;3.50;;;21.30;99.90;;;;;;4975329;28;20480;-64
2023/07/18 07:00:39;;;;;;;9.65;3.25;;;21.60;99.90;;;;;;4976768;28;20126;-63
2023/07/18 07:03:07;;;;;;;11.10;3.10;;;21.80;99.90;;;;;;4976974;28;20046;-63
2023/07/18 07:05:39;;;;;;;7.95;3.15;;;21.80;99.90;;;;;;4976929;28;20395;-63
2023/07/18 07:08:12;;;;;;;10.30;3.13;;;21.60;99.90;;;;;;4976905;28;20125;-63
2023/07/18 07:10:42;;;;;;;10.00;3.40;;;21.40;99.90;;;;;;4976840;28;20050;-63
2023/07/18 07:13:09;;;;;;;8.07;3.03;;;21.30;99.90;;;;;;4976114;28;20047;-64
2023/07/18 07:15:35;;;;;;;10.35;3.35;;;21.20;99.90;;;;;;4975592;28;20038;-64
2023/07/18 07:18:03;;;;;;;10.25;3.08;;;21.20;99.90;;;;;;4975353;28;20059;-64
2023/07/18 07:20:31;;;;;;;10.52;3.50;;;21.10;99.90;;;;;;4976592;28;20047;-64
2023/07/18 07:22:57;;;;;;;11.02;3.60;;;21.40;99.90;;;;;;4976348;28;20105;-65
2023/07/18 07:25:27;;;;;;;10.80;3.25;;;21.60;99.90;;;;;;4976678;28;20054;-65
2023/07/18 07:27:53;;;;;;;10.82;3.40;;;22.00;99.90;;;;;;4975090;28;20082;-64
2023/07/18 07:30:20;;;;;;;11.93;3.25;;;22.60;99.90;;;;;;4976624;28;20395;-63
2023/07/18 07:32:47;;;;;;;9.25;3.30;;;22.80;99.90;;;;;;4975154;28;20525;-63
2023/07/18 07:35:16;;;;;;;11.43;3.22;;;23.00;99.90;;;;;;4959137;28;20495;-64
2023/07/18 07:37:42;;;;;;;12.27;3.35;;;23.40;99.90;;;;;;4976046;28;20042;-63
2023/07/18 07:40:11;;;;;;;12.02;3.47;;;24.10;99.90;;;;;;4975228;28;20038;-63
2023/07/18 07:42:38;;;;;;;12.57;3.45;;;23.90;99.90;;;;;;4976007;28;20045;-62
2023/07/18 07:45:05;;;;;;;10.65;3.33;;;24.10;99.90;;;;;;4975878;28;20121;-64
2023/07/18 07:47:31;;;;;;;9.68;3.10;;;24.40;99.90;;;;;;4975784;28;20046;-63
2023/07/18 07:49:57;;;;;;;11.70;3.15;;;24.50;99.90;;;;;;4975847;28;20038;-66
2023/07/18 07:52:23;;;;;;;10.88;3.10;;;24.50;99.90;;;;;;4976009;28;20126;-63
2023/07/18 07:54:49;;;;;;;12.38;3.75;;;24.60;99.90;;;;;;4975701;28;20038;-62
2023/07/18 07:57:15;;;;;;;9.63;4.00;;;24.60;99.90;;;;;;4974564;28;20035;-63
2023/07/18 07:59:42;;;;;;;10.85;3.60;;;24.40;99.90;;;;;;4976002;28;20092;-63
2023/07/18 08:02:08;;;;;;;13.88;4.07;;;24.40;99.90;;;;;;4975927;28;20043;-63
2023/07/18 08:04:36;;;;;;;11.93;3.95;;;24.70;99.90;;;;;;4975711;28;20105;-63
2023/07/18 08:07:03;;;;;;;12.02;4.10;;;24.70;99.90;;;;;;4975533;28;20061;-63
2023/07/18 08:09:29;;;;;;;11.93;4.05;;;24.60;99.60;;;;;;4974485;28;20050;-63
2023/07/18 08:11:58;;;;;;;13.32;4.10;;;24.60;99.90;;;;;;4990472;28;20093;-63
2023/07/18 08:14:24;;;;;;;10.40;4.10;;;24.50;99.90;;;;;;4974098;28;20134;-63
2023/07/18 08:16:50;;;;;;;12.85;3.75;;;24.50;99.90;;;;;;4975666;28;20121;-63
2023/07/18 08:19:16;;;;;;;11.85;4.30;;;24.70;99.90;;;;;;4975096;28;20116;-63
2023/07/18 08:21:42;;;;;;;13.32;4.40;;;25.00;99.60;;;;;;4975587;28;20129;-63
2023/07/18 08:24:07;;;;;;;11.60;3.97;;;24.90;99.90;;;;;;4975115;28;20043;-63
2023/07/18 08:26:33;;;;;;;11.55;3.70;;;24.90;99.90;;;;;;4973874;28;20058;-63
2023/07/18 08:29:06;;;;;;;15.30;4.20;;;25.40;99.90;;;;;;5145317;27;1408578;-63
2023/07/18 08:31:32;;;;;;;13.40;3.88;;;25.40;99.30;;;;;;5173282;27;20050;-63
2023/07/18 08:33:58;;;;;;;14.27;3.90;;;25.10;99.00;;;;;;5173276;27;20035;-63
2023/07/18 08:36:25;;;;;;;14.05;3.95;;;24.80;98.60;;;;;;5173179;27;20470;-61
2023/07/18 08:38:51;;;;;;;12.95;3.78;;;24.60;98.90;;;;;;5173175;27;20052;-62
2023/07/18 08:41:21;;;;;;;12.32;3.70;;;24.60;99.40;;;;;;5137133;27;20038;-62
2023/07/18 08:43:48;;;;;;;11.82;3.70;;;24.50;99.30;;;;;;5154321;27;20070;-62
2023/07/18 08:46:14;;;;;;;12.02;3.38;;;24.50;99.90;;;;;;5172637;27;20171;-62
2023/07/18 08:48:45;;;;;;;10.73;3.47;;;24.60;98.60;;;;;;5154092;27;20043;-63
2023/07/18 08:51:14;;;;;;;12.38;3.47;;;24.10;98.70;;;;;;5172604;27;20513;-63
2023/07/18 08:53:43;;;;;;;11.27;3.45;;;24.10;99.60;;;;;;5172516;27;20035;-63
2023/07/18 08:56:08;;;;;;;10.75;3.28;;;24.30;99.50;;;;;;5154118;27;20065;-63
2023/07/18 08:58:37;;;;;;;12.18;3.30;;;24.50;99.90;;;;;;5172375;27;20038;-63
2023/07/18 09:01:04;;;;;;;9.95;2.70;;;24.70;98.00;;;;;;5154716;27;20060;-63
2023/07/18 09:03:30;;;;;;;10.18;2.72;;;24.80;99.30;;;;;;5172644;27;20389;-63
2023/07/18 09:05:57;;;;;;;8.90;2.60;;;24.90;98.70;;;;;;5172604;27;20035;-63
2023/07/18 09:08:23;;;;;;;8.85;2.90;;;24.90;97.50;;;;;;5153646;27;20046;-63
2023/07/18 09:11:03;;;;;;;8.05;2.78;;;24.80;97.40;;;;;;5172481;27;20031;-63
2023/07/18 09:13:45;;;;;;;9.43;3.03;;;24.70;96.80;;;;;;5153878;27;20031;-63
2023/07/18 09:16:19;;;;;;;9.25;2.88;;;24.80;97.20;;;;;;5172080;27;20034;-63
2023/07/18 09:18:53;;;;;;;8.02;2.75;;;25.00;98.00;;;;;;5172398;27;20038;-63
2023/07/18 09:21:20;;;;;;;7.40;2.40;;;25.20;97.30;;;;;;5136144;27;20049;-63
2023/07/18 09:23:47;;;;;;;8.73;2.20;;;25.30;96.70;;;;;;5171898;27;20050;-64
2023/07/18 09:26:14;;;;;;;6.50;2.10;;;25.20;96.00;;;;;;5172258;27;20073;-63
2023/07/18 09:28:41;;;;;;;9.20;2.20;;;25.20;95.90;;;;;;5153089;27;20111;-63
2023/07/18 09:31:18;;;;;;;7.80;1.85;;;25.20;96.80;;;;;;5153217;27;20053;-63
2023/07/18 09:33:48;;;;;;;7.88;1.90;;;25.20;96.20;;;;;;5153199;27;20034;-62
2023/07/18 09:36:19;;;;;;;7.10;2.05;;;25.20;95.70;;;;;;5172010;27;20047;-62
2023/07/18 09:38:46;;;;;;;7.67;1.83;;;25.30;94.90;;;;;;5168024;27;20057;-63
2023/07/18 09:41:16;;;;;;;8.48;2.03;;;25.20;93.90;;;;;;5139103;27;20273;-63
2023/07/18 09:43:46;;;;;;;9.27;2.00;;;25.00;94.40;;;;;;5157694;27;20048;-62
2023/07/18 09:46:13;;;;;;;7.10;2.00;;;25.20;95.30;;;;;;5157970;27;20042;-63
2023/07/18 09:48:40;;;;;;;8.65;1.85;;;25.30;95.30;;;;;;5139152;27;20055;-63
2023/07/18 09:51:14;;;;;;;6.05;1.60;;;25.30;93.70;;;;;;5157520;27;20038;-63
2023/07/18 09:53:45;;;;;;;6.53;1.52;;;25.40;93.20;;;;;;5157787;27;20058;-63
2023/07/18 09:56:16;;;;;;;7.88;1.50;;;25.30;92.80;;;;;;5157444;27;20549;-63
2023/07/18 09:58:44;;;;;;;6.95;1.70;;;25.30;93.00;;;;;;5157725;27;20038;-63
2023/07/18 10:01:19;;;;;;;6.55;1.50;;;25.50;93.50;;;;;;5139219;27;20041;-63
2023/07/18 10:03:47;;;;;;;4.85;1.50;;;25.50;92.90;;;;;;5157510;27;20034;-63
2023/07/18 10:06:15;;;;;;;6.25;1.50;;;25.60;91.30;;;;;;5157322;27;20042;-63
2023/07/18 10:08:43;;;;;;;5.38;1.40;;;25.60;91.70;;;;;;5157391;27;20043;-62
2023/07/18 10:11:09;;;;;;;6.03;1.38;;;25.50;91.70;;;;;;5157407;27;20070;-63
2023/07/18 10:13:59;;;;;;;5.55;1.27;;;25.50;91.90;;;;;;5157176;27;20043;-62
2023/07/18 10:16:27;;;;;;;5.95;1.60;;;25.60;91.30;;;;;;5156356;27;20114;-63
2023/07/18 10:18:53;;;;;;;5.90;1.30;;;25.50;90.90;;;;;;5121859;27;20050;-63
2023/07/18 10:21:33;;;;;;;5.38;1.40;;;25.60;90.70;;;;;;5138566;27;20049;-64
2023/07/18 10:24:23;;;;;;;6.97;1.48;;;25.50;89.10;;;;;;5157100;27;20074;-63
2023/07/18 10:26:53;;;;;;;5.40;1.35;;;25.40;89.90;;;;;;5142141;27;20092;-63
2023/07/18 10:29:19;;;;;;;4.38;1.50;;;25.40;89.70;;;;;;5156505;27;20067;-62
2023/07/18 10:31:45;;;;;;;4.95;1.35;;;25.50;90.00;;;;;;5157036;27;20039;-62
2023/07/18 10:34:18;;;;;;;5.13;1.40;;;25.60;90.50;;;;;;5156973;27;20026;-63
2023/07/18 10:37:00;;;;;;;4.20;1.25;;;25.90;88.40;;;;;;5156554;27;20034;-62
2023/07/18 10:39:43;;;;;;;5.05;1.45;;;25.80;89.70;;;;;;5156951;27;20060;-62
2023/07/18 10:42:32;;;;;;;4.45;1.20;;;25.70;86.50;;;;;;5121154;27;20074;-63
2023/07/18 10:45:01;;;;;;;4.65;1.10;;;25.70;90.00;;;;;;5156864;27;20050;-63
2023/07/18 10:47:27;;;;;;;5.13;1.30;;;25.80;88.90;;;;;;5156446;27;20043;-63
2023/07/18 10:49:53;;;;;;;4.30;1.20;;;26.00;87.90;;;;;;5156511;27;20474;-63
2023/07/18 10:52:20;;;;;;;4.97;1.40;;;26.20;86.60;;;;;;5155841;27;20062;-63
2023/07/18 10:54:49;;;;;;;4.60;1.30;;;26.30;86.80;;;;;;5156650;27;20415;-62
2023/07/18 10:57:15;;;;;;;4.57;1.20;;;26.40;86.30;;;;;;5137613;27;20043;-62
2023/07/18 10:59:44;;;;;;;6.47;1.50;;;26.40;84.70;;;;;;5156220;27;20053;-62
2023/07/18 11:02:11;;;;;;;5.90;1.30;;;26.40;83.30;;;;;;5156432;27;20038;-62
2023/07/18 11:04:37;;;;;;;4.03;1.30;;;26.40;81.90;;;;;;5137826;27;20050;-62
2023/07/18 11:07:03;;;;;;;4.90;1.33;;;26.30;82.00;;;;;;5156042;27;20039;-63
2023/07/18 11:09:29;;;;;;;4.78;1.20;;;26.30;80.70;;;;;;5156311;27;20031;-63
2023/07/18 11:11:55;;;;;;;4.82;1.10;;;26.20;80.90;;;;;;5155907;27;20034;-63
2023/07/18 11:14:21;;;;;;;3.40;1.00;;;26.20;82.00;;;;;;5155908;27;20047;-62
2023/07/18 11:16:47;;;;;;;5.63;1.23;;;26.30;81.60;;;;;;5156200;27;20038;-62
2023/07/18 11:19:13;;;;;;;4.32;1.10;;;26.30;80.00;;;;;;5137550;27;20489;-62
2023/07/18 11:21:40;;;;;;;4.65;1.20;;;26.00;78.50;;;;;;5137541;27;20122;-62
2023/07/18 11:24:06;;;;;;;3.92;1.10;;;26.00;78.30;;;;;;5155752;27;20035;-63
2023/07/18 11:26:32;;;;;;;4.05;1.17;;;26.10;80.00;;;;;;5155880;27;20046;-63
2023/07/18 11:29:00;;;;;;;4.65;1.15;;;26.20;80.90;;;;;;5155422;27;20384;-63
2023/07/18 11:31:42;;;;;;;5.15;1.30;;;26.40;80.60;;;;;;5155541;27;20042;-63
2023/07/18 11:34:08;;;;;;;3.97;1.10;;;26.40;79.00;;;;;;5155386;27;20030;-63
2023/07/18 11:36:36;;;;;;;4.60;1.17;;;26.40;79.40;;;;;;5137229;27;20034;-63
2023/07/18 11:39:06;;;;;;;3.75;1.00;;;26.40;78.30;;;;;;5155468;27;20103;-62
2023/07/18 11:41:40;;;;;;;4.28;1.20;;;26.40;77.70;;;;;;5137536;27;20050;-63
2023/07/18 11:44:08;;;;;;;4.03;1.20;;;26.40;76.70;;;;;;5155262;27;20039;-63
2023/07/18 11:46:42;;;;;;;4.43;1.27;;;26.40;77.50;;;;;;5136817;27;20043;-63
2023/07/18 11:49:15;;;;;;;4.82;1.23;;;26.40;75.50;;;;;;5136531;27;20046;-63
2023/07/18 11:51:41;;;;;;;5.05;1.13;;;26.30;77.90;;;;;;5155269;27;20045;-63
2023/07/18 11:54:07;;;;;;;5.82;1.25;;;26.20;79.30;;;;;;5155489;27;20046;-63
2023/07/18 11:56:37;;;;;;;5.13;1.40;;;26.10;78.10;;;;;;5155043;27;20113;-63
2023/07/18 11:59:03;;;;;;;4.72;1.35;;;26.00;77.00;;;;;;5155171;27;20483;-63
2023/07/18 12:01:31;;;;;;;4.50;1.15;;;25.90;78.90;;;;;;5154894;27;20053;-62
2023/07/18 12:03:56;;;;;;;4.18;1.20;;;25.90;78.20;;;;;;5155304;27;20035;-63
2023/07/18 12:06:22;;;;;;;4.55;1.13;;;26.00;76.60;;;;;;5136222;27;20079;-63
2023/07/18 12:08:49;;;;;;;5.10;1.30;;;26.00;77.50;;;;;;5136276;27;20486;-63
2023/07/18 12:11:15;;;;;;;4.45;1.10;;;26.10;76.60;;;;;;5154951;27;20031;-64
2023/07/18 12:13:41;;;;;;;4.25;1.27;;;26.40;77.70;;;;;;5154877;27;20038;-63
2023/07/18 12:16:07;;;;;;;4.13;1.17;;;26.50;75.10;;;;;;5155184;27;20138;-63
2023/07/18 12:18:34;;;;;;;4.70;1.20;;;26.60;74.20;;;;;;5155201;27;20038;-65
2023/07/18 12:21:00;;;;;;;4.63;1.30;;;26.60;75.30;;;;;;5154767;27;20125;-63
2023/07/18 12:23:25;;;;;;;4.10;1.20;;;26.70;77.00;;;;;;5136379;27;20069;-63
2023/07/18 12:25:51;;;;;;;6.07;1.20;;;26.80;77.80;;;;;;5155007;27;20034;-63
2023/07/18 12:28:18;;;;;;;4.57;1.30;;;26.90;77.20;;;;;;5119002;27;20502;-64
2023/07/18 12:30:44;;;;;;;4.57;1.20;;;26.90;78.50;;;;;;5155028;27;20066;-64
2023/07/18 12:33:09;;;;;;;5.68;1.23;;;26.90;77.80;;;;;;5136550;27;20519;-65
2023/07/18 12:35:36;;;;;;;6.78;1.20;;;26.90;75.80;;;;;;5154951;27;20395;-64
2023/07/18 12:38:03;;;;;;;4.53;1.20;;;26.90;76.20;;;;;;5154978;27;20168;-64
2023/07/18 12:40:29;;;;;;;6.38;1.35;;;26.90;74.40;;;;;;5154923;27;20504;-64